Карточка аэропорта UOOO

Внимание!
Информация на этой странице в стадии наполнения.
Если вы не увидели какой-то информации, или заметили неточность - пожалуйста сообщите нам!
Спасибо!
Команда RU-STAFF
Название аэропортаАлыкель
Название аэропорта (англ.)Alykel
Превышение574 ft. (175 m.)
Координаты69°19.02', 87°19.02'
Высота перехода1200m
Эшелон переходаQFE>744:FL60;744>QFE>717:FL70;717>QFE:FL80
Коды ответчика5401-5427
Зона ОрВДКрасноярск РПИ (UNKL)
Данные METARUOOO 230000Z 19013MPS 1000 0800NE R19/P2000U -SN BLSN SCT028 M19/M21 Q1023 R19/810360 NOSIG RMK QFE751/1002
Проноз погоды (TAF)UOOO 221959Z 2221/2321 18010G22MPS 0500 SN BLSN BKN016 TEMPO 2221/2309 1100 -SN BLSN BKN011 BECMG 2309/2313 2000 -SN BLSN TEMPO 2313/2321 1000 SN BLSN
NOTAMshow/hide NOTAM
AWOS   TABLE

Информация о ВПП

ВПП Длина ВПП (м.) Покрытие Курс ВПП Частота ILS
013430Бетон13109.5
193430Бетон193110.3

Диспетчерские позиции

Позывной Наименование органа УВД Частота
UOOO_GNDНорильск - Руление121.700
UOOO_R_APPНорильск - Круг120.400
UOOO_TWRНорильск - Старт118.300



Спутниковое изображение